Hakalau, Hawaii
Current Conditions -  °F | °C
As of 7:53 AM on Monday 22 Dec 2014 (Local Time) from PHTO Reporting Station
Few Clouds Few Clouds  
Wind Chill: 69°   Ceiling: Unl
Heat Index: 69°   Visibility: 10mi
Dew Point: 57°   Wind: 7mph
Humidity: 65%   Direction: 230°SW
Pressure: 30"   Gusts: NA
Location:  19.9°N, 155.13°W
Report Text: PHTO 221753Z 23006KT 10SM FEW025 FEW060 21/14 A3000 RMK AO2 SLP156 T02060139 10206 20183 50007 $
Loading
Personal Weather Stations






























Interactive Weather Map New forecast layout! Learn more

10-Day Weather Forecast

Advertisements
Track Severe Weather on mobile